createdAt,value
2023-01-06T00:00:42.680Z,99019.09
2023-01-06T00:03:10.044Z,99006.16
2023-01-06T00:05:36.695Z,99009.34
2023-01-06T00:08:03.411Z,99005.53
2023-01-06T00:10:30.148Z,99010.75
2023-01-06T00:12:56.874Z,98999.50
2023-01-06T00:15:23.613Z,99001.41
2023-01-06T00:17:50.373Z,98996.41
2023-01-06T00:20:17.397Z,98993.78
2023-01-06T00:22:44.433Z,98994.44
2023-01-06T00:25:11.489Z,98990.72
2023-01-06T00:27:39.890Z,98987.03
2023-01-06T00:30:07.903Z,98998.84
2023-01-06T00:32:35.275Z,98990.00
2023-01-06T00:35:02.988Z,98993.91
2023-01-06T00:37:30.317Z,98987.25
2023-01-06T00:39:57.272Z,98994.47
2023-01-06T00:42:24.901Z,98991.03
2023-01-06T00:44:52.183Z,98988.94
2023-01-06T00:47:20.922Z,98991.16
2023-01-06T00:49:47.987Z,98984.88
2023-01-06T00:52:15.250Z,98976.47
2023-01-06T00:54:43.103Z,98986.50
2023-01-06T00:57:10.021Z,98984.47
2023-01-06T00:59:37.187Z,98988.69
2023-01-06T01:02:05.097Z,98983.47
2023-01-06T01:04:32.306Z,98996.22
2023-01-06T01:07:00.430Z,98987.00
2023-01-06T01:09:30.019Z,98984.22
2023-01-06T01:12:10.382Z,98980.94
2023-01-06T01:14:55.489Z,98988.34
2023-01-06T01:17:30.338Z,98994.88
2023-01-06T01:19:59.115Z,98991.13
2023-01-06T01:22:30.487Z,98988.94
2023-01-06T01:24:57.579Z,98988.25
2023-01-06T01:27:24.266Z,98986.56
2023-01-06T01:29:52.789Z,98974.13
2023-01-06T01:32:19.613Z,98981.19
2023-01-06T01:34:46.296Z,98985.38
2023-01-06T01:37:14.224Z,98977.00
2023-01-06T01:39:41.829Z,98978.75
2023-01-06T01:42:16.019Z,98974.28
2023-01-06T01:45:07.123Z,98967.13
2023-01-06T01:47:57.460Z,98974.22
2023-01-06T01:50:30.010Z,98966.66
2023-01-06T01:53:02.171Z,98975.16
2023-01-06T01:55:30.930Z,98976.84
2023-01-06T01:58:02.760Z,98975.97
2023-01-06T02:00:29.511Z,98980.03
2023-01-06T02:02:57.296Z,98978.59
2023-01-06T02:05:26.416Z,98977.16
2023-01-06T02:07:54.814Z,98980.31
2023-01-06T02:10:24.257Z,98986.78
2023-01-06T02:12:57.120Z,98978.63
2023-01-06T02:15:32.938Z,98988.38
2023-01-06T02:18:26.899Z,98984.50
2023-01-06T02:21:41.755Z,98981.78
2023-01-06T02:24:46.202Z,98980.00
2023-01-06T02:27:47.146Z,98977.25
2023-01-06T02:30:16.502Z,98972.16
2023-01-06T02:33:02.052Z,98976.09
2023-01-06T02:35:34.711Z,98965.81
2023-01-06T02:38:23.810Z,98971.69
2023-01-06T02:41:39.733Z,98970.00
2023-01-06T02:44:29.780Z,98967.28
2023-01-06T02:47:03.449Z,98958.38
2023-01-06T02:49:55.218Z,98959.00
2023-01-06T02:52:25.207Z,98964.97
2023-01-06T02:54:58.487Z,98965.28
2023-01-06T02:57:45.342Z,98956.50
2023-01-06T03:00:18.730Z,98955.34
2023-01-06T03:02:51.570Z,98953.88
2023-01-06T03:05:18.328Z,98958.22
2023-01-06T03:07:47.780Z,98952.41
2023-01-06T03:10:19.762Z,98956.50
2023-01-06T03:12:57.611Z,98949.50
2023-01-06T03:15:25.395Z,98939.19
2023-01-06T03:17:52.694Z,98939.84
2023-01-06T03:20:20.034Z,98929.41
2023-01-06T03:22:47.829Z,98925.44
2023-01-06T03:25:15.117Z,98927.19
2023-01-06T03:27:43.169Z,98941.34
2023-01-06T03:30:11.974Z,98923.63
2023-01-06T03:33:02.819Z,98928.03
2023-01-06T03:35:39.593Z,98925.53
2023-01-06T03:38:27.360Z,98924.00
2023-01-06T03:41:22.715Z,98914.75
2023-01-06T03:44:02.717Z,98901.69
2023-01-06T03:46:38.668Z,98909.66
2023-01-06T03:49:47.561Z,98908.28
2023-01-06T03:52:32.394Z,98909.25
2023-01-06T03:55:10.976Z,98909.03
2023-01-06T03:57:42.757Z,98910.44
2023-01-06T04:00:19.912Z,98914.78
2023-01-06T04:02:54.209Z,98907.78
2023-01-06T04:05:26.011Z,98903.16
2023-01-06T04:07:53.207Z,98904.34
2023-01-06T04:10:22.863Z,98903.72
2023-01-06T04:12:53.062Z,98902.75
2023-01-06T04:15:29.121Z,98899.69
2023-01-06T04:17:56.547Z,98903.69
2023-01-06T04:20:27.208Z,98908.63
2023-01-06T04:23:00.142Z,98907.47
2023-01-06T04:25:32.505Z,98905.81
2023-01-06T04:28:06.109Z,98905.53
2023-01-06T04:30:32.889Z,98901.06
2023-01-06T04:33:02.698Z,98910.34
2023-01-06T04:35:29.315Z,98911.56
2023-01-06T04:37:56.125Z,98900.16
2023-01-06T04:40:22.852Z,98904.69
2023-01-06T04:43:04.461Z,98908.09
2023-01-06T04:45:31.525Z,98902.72
2023-01-06T04:47:58.186Z,98904.69
2023-01-06T04:50:24.851Z,98907.56
2023-01-06T04:52:51.513Z,98907.78
2023-01-06T04:55:18.388Z,98912.34
2023-01-06T04:57:45.049Z,98910.38
2023-01-06T05:00:12.276Z,98909.56
2023-01-06T05:02:38.910Z,98903.13
2023-01-06T05:05:06.001Z,98910.88
2023-01-06T05:07:32.685Z,98906.38
2023-01-06T05:09:59.579Z,98899.56
2023-01-06T05:12:26.329Z,98901.66
2023-01-06T05:14:53.069Z,98906.06
2023-01-06T05:17:19.696Z,98900.63
2023-01-06T05:19:46.489Z,98902.97
2023-01-06T05:22:13.191Z,98915.72
2023-01-06T05:24:39.922Z,98923.22
2023-01-06T05:27:06.638Z,98924.53
2023-01-06T05:29:33.756Z,98917.94
2023-01-06T05:32:00.782Z,98919.78
2023-01-06T05:34:27.754Z,98922.28
2023-01-06T05:36:57.924Z,98925.56
2023-01-06T05:39:24.626Z,98919.34
2023-01-06T05:41:51.275Z,98924.94
2023-01-06T05:44:20.601Z,98922.50
2023-01-06T05:46:47.461Z,98924.84
2023-01-06T05:49:14.316Z,98932.59
2023-01-06T05:51:41.001Z,98942.81
2023-01-06T05:54:09.084Z,98941.88
2023-01-06T05:56:36.289Z,98944.38
2023-01-06T05:59:03.641Z,98938.13
2023-01-06T06:01:31.891Z,98935.22
2023-01-06T06:03:58.999Z,98934.88
2023-01-06T06:06:27.759Z,98934.66
2023-01-06T06:08:54.416Z,98940.56
2023-01-06T06:11:22.234Z,98943.09
2023-01-06T06:13:54.063Z,98944.66
2023-01-06T06:16:23.657Z,98937.38
2023-01-06T06:18:53.175Z,98946.72
2023-01-06T06:21:22.772Z,98944.59
2023-01-06T06:23:49.738Z,98938.56
2023-01-06T06:26:16.824Z,98950.31
2023-01-06T06:28:43.620Z,98935.91
2023-01-06T06:31:18.827Z,98945.03
2023-01-06T06:33:45.564Z,98942.06
2023-01-06T06:36:15.845Z,98945.66
2023-01-06T06:38:47.011Z,98938.47
2023-01-06T06:41:14.027Z,98948.91
2023-01-06T06:43:41.371Z,98957.41
2023-01-06T06:46:08.781Z,98947.47
2023-01-06T06:48:36.067Z,98945.78
2023-01-06T06:51:07.161Z,98937.91
2023-01-06T06:53:35.190Z,98939.72
2023-01-06T06:56:02.517Z,98948.44
2023-01-06T06:58:29.513Z,98958.88
2023-01-06T07:00:56.308Z,98964.47
2023-01-06T07:03:23.077Z,98951.56
2023-01-06T07:05:51.779Z,98952.91
2023-01-06T07:08:18.768Z,98960.22
2023-01-06T07:10:45.595Z,98952.81
2023-01-06T07:13:12.744Z,98955.16
2023-01-06T07:15:39.444Z,98958.09
2023-01-06T07:18:06.807Z,98953.78
2023-01-06T07:20:35.998Z,98967.88
2023-01-06T07:23:03.550Z,98965.31
2023-01-06T07:25:30.879Z,98955.72
2023-01-06T07:28:00.204Z,98954.31
2023-01-06T07:30:27.762Z,98967.53
2023-01-06T07:32:54.680Z,98974.16
2023-01-06T07:35:21.392Z,98977.75
2023-01-06T07:37:48.107Z,98970.28
2023-01-06T07:40:15.271Z,98973.88
2023-01-06T07:42:41.991Z,98966.63
2023-01-06T07:45:09.876Z,98976.00
2023-01-06T07:47:36.849Z,98973.34
2023-01-06T07:50:04.720Z,98990.22
2023-01-06T07:52:31.812Z,98994.47
2023-01-06T07:54:59.470Z,98991.84
2023-01-06T07:57:30.270Z,99003.75
2023-01-06T07:59:57.043Z,98999.31
2023-01-06T08:02:23.894Z,98997.00
2023-01-06T08:04:50.731Z,98991.81
2023-01-06T08:07:17.669Z,98993.41
2023-01-06T08:09:44.710Z,98996.75
2023-01-06T08:12:12.433Z,98994.50
2023-01-06T08:14:39.391Z,98998.13
2023-01-06T08:17:06.079Z,98996.13
2023-01-06T08:19:32.937Z,98990.56
2023-01-06T08:21:59.652Z,98986.66
2023-01-06T08:24:26.433Z,98989.09
2023-01-06T08:26:53.122Z,98990.81
2023-01-06T08:29:19.770Z,98988.19
2023-01-06T08:31:46.391Z,98984.13
2023-01-06T08:34:14.460Z,98983.00
2023-01-06T08:36:43.122Z,98972.56
2023-01-06T08:39:10.765Z,98978.00
2023-01-06T08:41:38.290Z,98975.09
2023-01-06T08:44:05.558Z,98967.41
2023-01-06T08:46:33.462Z,98967.66
2023-01-06T08:49:00.500Z,98961.22
2023-01-06T08:51:28.412Z,98965.44
2023-01-06T08:53:55.450Z,98960.34
2023-01-06T08:56:24.628Z,98971.00
2023-01-06T08:59:02.488Z,98984.88
2023-01-06T09:01:35.014Z,98981.22
2023-01-06T09:04:05.168Z,98982.84
2023-01-06T09:06:32.531Z,98989.00
2023-01-06T09:08:59.985Z,98988.09
2023-01-06T09:11:27.228Z,98991.53
2023-01-06T09:13:54.067Z,98985.31
2023-01-06T09:16:21.909Z,98976.47
2023-01-06T09:18:50.179Z,98977.94
2023-01-06T09:21:22.225Z,98977.16
2023-01-06T09:23:49.961Z,98977.91
2023-01-06T09:26:17.993Z,98984.28
2023-01-06T09:28:44.980Z,98981.28
2023-01-06T09:31:12.025Z,98972.94
2023-01-06T09:33:39.175Z,98979.19
2023-01-06T09:36:06.855Z,98984.56
2023-01-06T09:38:33.582Z,98992.22
2023-01-06T09:41:18.259Z,98990.63
2023-01-06T09:44:03.436Z,98997.09
2023-01-06T09:46:35.113Z,99010.22
2023-01-06T09:49:06.806Z,99014.28
2023-01-06T09:51:35.556Z,99017.16
2023-01-06T09:54:15.280Z,99011.03
2023-01-06T09:56:45.191Z,99004.03
2023-01-06T09:59:14.483Z,99003.34
2023-01-06T10:01:47.201Z,98993.09
2023-01-06T10:04:22.401Z,99011.84
2023-01-06T10:06:54.954Z,99000.06
2023-01-06T10:09:49.612Z,98999.63
2023-01-06T10:13:08.198Z,99007.34
2023-01-06T10:15:47.072Z,99011.78
2023-01-06T10:18:37.355Z,99015.31
2023-01-06T10:21:13.867Z,99016.69
2023-01-06T10:23:51.595Z,99019.19
2023-01-06T10:26:32.218Z,99026.28
2023-01-06T10:29:04.015Z,99018.19
2023-01-06T10:31:35.189Z,99020.81
2023-01-06T10:34:17.016Z,99015.38
2023-01-06T10:36:46.394Z,99018.53
2023-01-06T10:39:20.171Z,99015.63
2023-01-06T10:42:16.753Z,99021.28
2023-01-06T10:44:43.473Z,99024.94
2023-01-06T10:47:22.779Z,99025.75
2023-01-06T10:49:49.670Z,99008.53
2023-01-06T10:52:16.670Z,99008.59
2023-01-06T10:54:44.944Z,98998.97
2023-01-06T10:57:20.619Z,99004.25
2023-01-06T11:00:12.681Z,98998.66
2023-01-06T11:03:32.311Z,98994.78
2023-01-06T11:06:07.185Z,98999.09
2023-01-06T11:08:35.625Z,98998.47
2023-01-06T11:11:02.780Z,99000.50
2023-01-06T11:13:34.436Z,98995.47
2023-01-06T11:16:07.915Z,99000.19
2023-01-06T11:18:39.381Z,98995.03
2023-01-06T11:21:10.306Z,98995.22
2023-01-06T11:23:41.183Z,98988.41
2023-01-06T11:26:14.269Z,98987.41
2023-01-06T11:28:43.389Z,98982.03
2023-01-06T11:31:30.412Z,98980.25
2023-01-06T11:34:03.403Z,98975.16
2023-01-06T11:36:32.741Z,98977.97
2023-01-06T11:39:12.375Z,98979.81
2023-01-06T11:41:43.960Z,98977.59
2023-01-06T11:44:22.465Z,98977.59
2023-01-06T11:46:52.183Z,98978.25
2023-01-06T11:49:26.514Z,98975.75
2023-01-06T11:52:02.902Z,98979.56
2023-01-06T11:54:39.161Z,98976.31
2023-01-06T11:57:27.448Z,98970.66
2023-01-06T12:00:19.093Z,98960.78
2023-01-06T12:02:57.489Z,98949.97
2023-01-06T12:05:35.097Z,98957.81
2023-01-06T12:08:06.991Z,98946.84
2023-01-06T12:10:35.504Z,98944.66
2023-01-06T12:13:02.950Z,98942.53
2023-01-06T12:15:33.272Z,98937.47
2023-01-06T12:18:26.658Z,98947.00
2023-01-06T12:20:58.168Z,98941.31
2023-01-06T12:23:31.249Z,98937.78
2023-01-06T12:26:02.661Z,98935.69
2023-01-06T12:28:39.715Z,98933.44
2023-01-06T12:31:09.422Z,98931.97
2023-01-06T12:33:42.218Z,98945.81
2023-01-06T12:36:19.528Z,98944.94
2023-01-06T12:38:52.524Z,98935.09
2023-01-06T12:41:37.905Z,98931.47
2023-01-06T12:44:27.928Z,98927.81
2023-01-06T12:47:02.775Z,98935.31
2023-01-06T12:49:43.038Z,98927.91
2023-01-06T12:52:17.404Z,98931.25
2023-01-06T12:54:51.569Z,98931.28
2023-01-06T12:57:27.101Z,98928.09
2023-01-06T12:59:59.722Z,98926.91
2023-01-06T13:02:54.528Z,98928.81
2023-01-06T13:05:29.116Z,98933.13
2023-01-06T13:08:40.954Z,98920.84
2023-01-06T13:11:19.089Z,98930.25
2023-01-06T13:14:04.484Z,98933.84
2023-01-06T13:16:43.412Z,98934.72
2023-01-06T13:19:20.473Z,98935.44
2023-01-06T13:21:50.067Z,98931.88
2023-01-06T13:24:37.841Z,98942.28
2023-01-06T13:27:25.665Z,98940.84
2023-01-06T13:30:26.394Z,98943.84
2023-01-06T13:33:35.968Z,98941.47
2023-01-06T13:36:21.428Z,98937.84
2023-01-06T13:38:59.347Z,98932.44
2023-01-06T13:41:31.881Z,98937.22
2023-01-06T13:43:59.795Z,98931.44
2023-01-06T13:46:28.335Z,98936.94
2023-01-06T13:49:01.389Z,98934.78
2023-01-06T13:51:35.128Z,98930.22
2023-01-06T13:54:02.991Z,98933.63
2023-01-06T13:56:34.811Z,98934.06
2023-01-06T13:59:20.874Z,98939.72
2023-01-06T14:01:48.071Z,98937.63
2023-01-06T14:04:32.972Z,98937.47
2023-01-06T14:07:00.744Z,98933.41
2023-01-06T14:09:28.201Z,98934.94
2023-01-06T14:12:09.110Z,98937.22
2023-01-06T14:14:38.973Z,98930.59
2023-01-06T14:17:05.925Z,98937.88
2023-01-06T14:19:38.533Z,98936.28
2023-01-06T14:22:17.851Z,98936.88
2023-01-06T14:24:51.457Z,98933.72
2023-01-06T14:27:47.025Z,98929.09
2023-01-06T14:30:22.967Z,98940.19
2023-01-06T14:32:49.608Z,98937.50
2023-01-06T14:35:21.629Z,98935.00
2023-01-06T14:38:12.749Z,98929.31
2023-01-06T14:40:49.692Z,98926.59
2023-01-06T14:43:35.023Z,98925.47
2023-01-06T14:46:19.163Z,98924.16
2023-01-06T14:48:52.045Z,98926.25
2023-01-06T14:51:21.390Z,98930.78
2023-01-06T14:53:58.490Z,98931.84
2023-01-06T14:56:28.866Z,98924.28
2023-01-06T14:59:13.599Z,98933.09
2023-01-06T15:01:44.048Z,98943.63
2023-01-06T15:04:24.054Z,98943.47
2023-01-06T15:07:03.273Z,98947.91
2023-01-06T15:09:30.136Z,98946.72
2023-01-06T15:11:57.022Z,98936.13
2023-01-06T15:14:25.797Z,98933.72
2023-01-06T15:16:54.734Z,98937.50
2023-01-06T15:19:21.919Z,98936.94
2023-01-06T15:21:51.919Z,98929.75
2023-01-06T15:24:31.921Z,98925.44
2023-01-06T15:27:05.386Z,98925.81
2023-01-06T15:29:32.175Z,98937.00
2023-01-06T15:31:59.939Z,98930.91
2023-01-06T15:34:40.323Z,98924.38
2023-01-06T15:37:14.364Z,98928.38
2023-01-06T15:39:42.743Z,98926.63
2023-01-06T15:42:13.271Z,98920.72
2023-01-06T15:44:40.246Z,98922.00
2023-01-06T15:47:12.911Z,98921.44
2023-01-06T15:50:02.929Z,98921.59
2023-01-06T15:52:38.685Z,98927.19
2023-01-06T15:55:07.752Z,98923.47
2023-01-06T15:57:39.156Z,98923.38
2023-01-06T16:00:09.113Z,98926.94
2023-01-06T16:02:35.904Z,98938.56
2023-01-06T16:05:02.984Z,98943.28
2023-01-06T16:07:36.569Z,98944.97
2023-01-06T16:10:03.555Z,98946.16
2023-01-06T16:12:30.215Z,98941.53
2023-01-06T16:14:56.890Z,98945.72
2023-01-06T16:17:31.508Z,98938.63
2023-01-06T16:20:00.664Z,98947.09
2023-01-06T16:22:51.102Z,98953.88
2023-01-06T16:25:21.163Z,98950.28
2023-01-06T16:27:52.400Z,98947.09
2023-01-06T16:30:27.013Z,98951.00
2023-01-06T16:32:55.751Z,98942.69
2023-01-06T16:35:25.571Z,98946.16
2023-01-06T16:37:52.857Z,98949.00
2023-01-06T16:40:22.616Z,98935.91
2023-01-06T16:42:50.932Z,98937.91
2023-01-06T16:45:26.860Z,98941.88
2023-01-06T16:47:54.645Z,98935.19
2023-01-06T16:50:36.309Z,98937.28
2023-01-06T16:53:15.313Z,98941.72
2023-01-06T16:55:42.757Z,98934.72
2023-01-06T16:58:23.264Z,98935.59
2023-01-06T17:00:52.274Z,98937.09
2023-01-06T17:03:21.590Z,98942.47
2023-01-06T17:05:48.491Z,98941.84
2023-01-06T17:08:17.061Z,98937.38
2023-01-06T17:10:44.774Z,98933.84
2023-01-06T17:13:34.619Z,98937.25
2023-01-06T17:16:09.455Z,98937.94
2023-01-06T17:19:06.311Z,98934.22
2023-01-06T17:21:37.666Z,98939.75
2023-01-06T17:24:24.717Z,98931.63
2023-01-06T17:26:57.020Z,98939.88
2023-01-06T17:29:26.706Z,98934.50
2023-01-06T17:31:57.006Z,98928.81
2023-01-06T17:34:31.693Z,98937.28
2023-01-06T17:37:02.879Z,98929.50
2023-01-06T17:39:35.596Z,98936.56
2023-01-06T17:42:26.527Z,98935.81
2023-01-06T17:44:55.753Z,98939.81
2023-01-06T17:47:22.407Z,98938.28
2023-01-06T17:49:54.987Z,98931.72
2023-01-06T17:52:24.288Z,98940.56
2023-01-06T17:55:15.569Z,98939.91
2023-01-06T17:57:46.176Z,98935.59
2023-01-06T18:00:26.844Z,98939.03
2023-01-06T18:03:02.947Z,98927.59
2023-01-06T18:05:35.428Z,98929.44
2023-01-06T18:08:04.868Z,98934.38
2023-01-06T18:10:40.367Z,98928.34
2023-01-06T18:13:17.506Z,98934.50
2023-01-06T18:15:46.454Z,98931.88
2023-01-06T18:18:23.785Z,98933.50
2023-01-06T18:21:00.431Z,98937.84
2023-01-06T18:23:28.161Z,98931.78
2023-01-06T18:26:06.516Z,98941.72
2023-01-06T18:28:35.716Z,98933.25
2023-01-06T18:31:03.490Z,98938.69
2023-01-06T18:33:30.329Z,98933.19
2023-01-06T18:35:59.868Z,98938.66
2023-01-06T18:38:29.866Z,98931.41
2023-01-06T18:40:56.750Z,98935.91
2023-01-06T18:43:29.892Z,98942.38
2023-01-06T18:46:13.056Z,98931.06
2023-01-06T18:48:40.133Z,98929.66
2023-01-06T18:51:18.349Z,98938.91
2023-01-06T18:53:49.743Z,98938.25
2023-01-06T18:56:18.739Z,98934.59
2023-01-06T18:58:49.622Z,98937.47
2023-01-06T19:01:26.192Z,98937.19
2023-01-06T19:04:02.098Z,98936.47
2023-01-06T19:06:38.437Z,98933.91
2023-01-06T19:09:36.235Z,98936.47
2023-01-06T19:12:17.634Z,98938.59
2023-01-06T19:14:49.697Z,98939.38
2023-01-06T19:17:30.394Z,98944.25
2023-01-06T19:20:00.972Z,98940.19
2023-01-06T19:22:29.653Z,98946.00
2023-01-06T19:25:13.284Z,98950.41
2023-01-06T19:27:58.051Z,98946.69
2023-01-06T19:30:44.240Z,98947.78
2023-01-06T19:33:34.391Z,98949.59
2023-01-06T19:36:04.360Z,98947.63
2023-01-06T19:38:35.620Z,98939.91
2023-01-06T19:41:14.046Z,98944.88
2023-01-06T19:43:40.954Z,98942.13
2023-01-06T19:46:23.935Z,98940.25
2023-01-06T19:48:51.013Z,98941.97
2023-01-06T19:51:20.450Z,98933.25
2023-01-06T19:53:53.782Z,98937.97
2023-01-06T19:56:29.449Z,98935.84
2023-01-06T19:59:18.039Z,98935.03
2023-01-06T20:01:45.743Z,98932.38
2023-01-06T20:04:24.036Z,98928.59
2023-01-06T20:06:51.010Z,98927.72
2023-01-06T20:09:18.093Z,98932.16
2023-01-06T20:11:44.751Z,98930.44
2023-01-06T20:14:11.449Z,98926.78
2023-01-06T20:16:38.204Z,98927.88
2023-01-06T20:19:05.050Z,98925.19
2023-01-06T20:21:32.125Z,98929.50
2023-01-06T20:23:58.921Z,98926.25
2023-01-06T20:26:26.517Z,98927.97
2023-01-06T20:28:53.176Z,98923.47
2023-01-06T20:31:20.193Z,98925.19
2023-01-06T20:33:46.968Z,98928.63
2023-01-06T20:36:17.144Z,98926.09
2023-01-06T20:38:45.294Z,98926.97
2023-01-06T20:41:12.242Z,98928.63
2023-01-06T20:43:39.267Z,98928.69
2023-01-06T20:46:06.401Z,98932.22
2023-01-06T20:48:33.308Z,98933.03
2023-01-06T20:51:00.397Z,98929.41
2023-01-06T20:53:27.408Z,98927.66
2023-01-06T20:55:54.096Z,98925.03
2023-01-06T20:58:20.900Z,98918.75
2023-01-06T21:00:47.545Z,98924.84
2023-01-06T21:03:14.239Z,98921.31
2023-01-06T21:05:40.939Z,98922.28
2023-01-06T21:08:07.674Z,98913.44
2023-01-06T21:10:34.365Z,98909.09
2023-01-06T21:13:01.044Z,98915.38
2023-01-06T21:15:27.735Z,98905.59
2023-01-06T21:17:54.465Z,98904.78
2023-01-06T21:20:21.133Z,98903.94
2023-01-06T21:22:47.862Z,98899.34
2023-01-06T21:25:16.419Z,98889.91
2023-01-06T21:27:43.106Z,98896.38
2023-01-06T21:30:10.236Z,98888.44
2023-01-06T21:32:37.071Z,98890.13
2023-01-06T21:35:03.837Z,98890.34
2023-01-06T21:37:30.563Z,98893.56
2023-01-06T21:39:57.292Z,98897.94
2023-01-06T21:42:42.619Z,98895.31
2023-01-06T21:45:10.215Z,98895.44
2023-01-06T21:47:36.843Z,98889.25
2023-01-06T21:50:04.042Z,98886.59
2023-01-06T21:52:31.925Z,98881.09
2023-01-06T21:54:59.131Z,98885.19
2023-01-06T21:57:25.874Z,98883.28
2023-01-06T21:59:52.509Z,98882.47
2023-01-06T22:02:19.426Z,98875.19
2023-01-06T22:04:46.129Z,98879.59
2023-01-06T22:07:13.621Z,98887.59
2023-01-06T22:09:42.399Z,98883.13
2023-01-06T22:12:13.123Z,98873.56
2023-01-06T22:14:40.312Z,98878.94
2023-01-06T22:17:07.323Z,98874.50
2023-01-06T22:19:34.799Z,98873.69
2023-01-06T22:22:02.622Z,98870.16
2023-01-06T22:24:32.155Z,98872.38
2023-01-06T22:26:59.041Z,98872.97
2023-01-06T22:29:26.821Z,98866.72
2023-01-06T22:31:53.515Z,98863.19
2023-01-06T22:34:20.714Z,98861.63
2023-01-06T22:36:47.418Z,98859.56
2023-01-06T22:39:14.134Z,98857.66
2023-01-06T22:41:40.974Z,98866.56
2023-01-06T22:44:07.782Z,98864.72
2023-01-06T22:46:34.599Z,98859.78
2023-01-06T22:49:01.417Z,98861.22
2023-01-06T22:51:28.660Z,98861.31
2023-01-06T22:53:56.931Z,98864.66
2023-01-06T22:56:24.189Z,98864.50
2023-01-06T22:58:51.019Z,98860.16
2023-01-06T23:01:17.926Z,98856.63
2023-01-06T23:03:44.721Z,98853.84
2023-01-06T23:06:13.793Z,98853.09
2023-01-06T23:08:50.959Z,98854.13
2023-01-06T23:11:22.470Z,98854.84
2023-01-06T23:13:49.181Z,98857.66
2023-01-06T23:16:19.077Z,98857.66
2023-01-06T23:18:47.775Z,98861.25
2023-01-06T23:21:20.546Z,98864.00
2023-01-06T23:23:48.935Z,98861.22
2023-01-06T23:26:24.269Z,98856.72
2023-01-06T23:28:52.350Z,98851.41
2023-01-06T23:31:22.017Z,98855.75
2023-01-06T23:33:55.855Z,98854.94
2023-01-06T23:36:24.698Z,98851.25
2023-01-06T23:38:52.040Z,98849.63
2023-01-06T23:41:22.755Z,98848.75
2023-01-06T23:43:50.224Z,98846.13
2023-01-06T23:46:28.577Z,98844.56
2023-01-06T23:48:55.979Z,98837.34
2023-01-06T23:51:23.338Z,98839.09
2023-01-06T23:53:50.397Z,98837.19
2023-01-06T23:56:23.324Z,98825.69
2023-01-06T23:58:53.503Z,98825.78
